createdAt,value
2018-03-25T00:00:34.570Z,99.90
2018-03-25T00:03:03.674Z,99.90
2018-03-25T00:05:32.022Z,99.90
2018-03-25T00:08:00.359Z,99.90
2018-03-25T00:10:28.690Z,99.90
2018-03-25T00:12:57.062Z,99.90
2018-03-25T00:15:25.383Z,99.90
2018-03-25T00:17:54.491Z,99.90
2018-03-25T00:20:23.585Z,99.90
2018-03-25T00:22:51.929Z,99.90
2018-03-25T00:25:20.279Z,99.90
2018-03-25T00:27:48.645Z,99.90
2018-03-25T00:30:17.768Z,99.90
2018-03-25T00:32:46.101Z,99.90
2018-03-25T00:35:15.225Z,99.90
2018-03-25T00:37:43.555Z,99.90
2018-03-25T00:40:11.897Z,99.90
2018-03-25T00:42:40.247Z,99.90
2018-03-25T00:45:08.588Z,99.90
2018-03-25T00:47:36.944Z,99.90
2018-03-25T00:50:05.267Z,99.90
2018-03-25T00:52:33.589Z,99.90
2018-03-25T00:55:02.691Z,99.90
2018-03-25T00:57:31.812Z,99.90
2018-03-25T01:00:00.893Z,99.90
2018-03-25T01:02:30.021Z,99.90
2018-03-25T01:04:58.369Z,99.90
2018-03-25T01:07:27.461Z,99.90
2018-03-25T01:09:56.579Z,99.90
2018-03-25T01:12:25.679Z,99.90
2018-03-25T01:14:54.796Z,99.90
2018-03-25T01:17:23.134Z,99.90
2018-03-25T01:19:52.243Z,99.90
2018-03-25T01:22:20.568Z,99.90
2018-03-25T01:24:48.935Z,99.90
2018-03-25T01:27:17.285Z,99.90
2018-03-25T01:29:46.377Z,99.90
2018-03-25T01:32:14.722Z,99.90
2018-03-25T01:34:43.125Z,99.90
2018-03-25T01:37:11.463Z,99.90
2018-03-25T01:39:39.871Z,99.90
2018-03-25T01:42:08.225Z,99.90
2018-03-25T01:44:37.300Z,99.90
2018-03-25T01:47:05.641Z,99.90
2018-03-25T01:49:34.000Z,99.90
2018-03-25T01:52:02.333Z,99.90
2018-03-25T01:54:30.684Z,99.90
2018-03-25T01:56:59.018Z,99.90
2018-03-25T01:59:27.351Z,99.90
2018-03-25T02:01:56.491Z,99.90
2018-03-25T02:04:25.621Z,99.90
2018-03-25T02:06:54.705Z,99.90
2018-03-25T02:09:23.809Z,99.90
2018-03-25T02:11:52.921Z,99.90
2018-03-25T02:14:22.005Z,99.90
2018-03-25T02:16:51.145Z,99.90
2018-03-25T02:19:19.529Z,99.90
2018-03-25T02:21:47.863Z,99.90
2018-03-25T02:24:16.241Z,99.90
2018-03-25T02:26:44.596Z,99.90
2018-03-25T02:29:12.962Z,99.90
2018-03-25T02:31:41.341Z,99.90
2018-03-25T02:34:09.724Z,99.90
2018-03-25T02:36:38.113Z,99.90
2018-03-25T02:39:06.468Z,99.90
2018-03-25T02:41:35.576Z,99.90
2018-03-25T02:44:03.900Z,99.90
2018-03-25T02:49:06.750Z,99.90
2018-03-25T02:51:35.883Z,99.90
2018-03-25T02:54:04.230Z,99.90
2018-03-25T02:56:33.423Z,99.90
2018-03-25T02:59:01.740Z,99.90
2018-03-25T03:01:30.080Z,99.90
2018-03-25T03:03:58.430Z,99.90
2018-03-25T03:06:26.745Z,99.90
2018-03-25T03:08:55.117Z,99.90
2018-03-25T03:11:23.452Z,99.90
2018-03-25T03:13:51.753Z,99.90
2018-03-25T03:16:20.069Z,99.90
2018-03-25T03:18:48.467Z,99.90
2018-03-25T03:21:16.829Z,99.90
2018-03-25T03:23:45.188Z,99.90
2018-03-25T03:26:13.530Z,99.90
2018-03-25T03:28:41.879Z,99.90
2018-03-25T03:31:10.226Z,99.90
2018-03-25T03:33:38.572Z,99.90
2018-03-25T03:36:07.641Z,99.90
2018-03-25T03:38:36.789Z,99.90
2018-03-25T03:41:05.105Z,99.90
2018-03-25T03:43:33.459Z,99.90
2018-03-25T03:46:01.782Z,99.90
2018-03-25T03:48:30.143Z,99.90
2018-03-25T03:50:58.507Z,99.90
2018-03-25T03:53:26.841Z,99.90
2018-03-25T03:55:55.165Z,99.90
2018-03-25T03:58:23.573Z,99.90
2018-03-25T04:00:51.932Z,99.90
2018-03-25T04:03:20.257Z,99.90
2018-03-25T04:05:48.591Z,99.90
2018-03-25T04:08:17.710Z,99.90
2018-03-25T04:10:46.097Z,99.90
2018-03-25T04:13:14.477Z,99.90
2018-03-25T04:15:42.849Z,99.90
2018-03-25T04:18:11.261Z,99.90
2018-03-25T04:20:39.591Z,99.90
2018-03-25T04:23:07.913Z,99.90
2018-03-25T04:25:36.261Z,99.90
2018-03-25T04:28:04.727Z,99.90
2018-03-25T04:30:33.058Z,99.90
2018-03-25T04:33:01.393Z,99.90
2018-03-25T04:35:29.738Z,99.90
2018-03-25T04:37:58.081Z,99.90
2018-03-25T04:40:27.200Z,99.90
2018-03-25T04:42:55.543Z,99.90
2018-03-25T04:45:24.669Z,99.90
2018-03-25T04:47:53.059Z,99.90
2018-03-25T04:50:21.444Z,99.90
2018-03-25T04:52:51.069Z,99.90
2018-03-25T04:55:19.411Z,99.90
2018-03-25T04:57:47.737Z,99.90
2018-03-25T05:00:16.043Z,99.90
2018-03-25T05:02:44.382Z,99.90
2018-03-25T05:05:13.478Z,99.90
2018-03-25T05:07:41.856Z,99.90
2018-03-25T05:10:10.951Z,99.90
2018-03-25T05:12:40.049Z,99.90
2018-03-25T05:15:09.157Z,99.90
2018-03-25T05:17:38.263Z,99.90
2018-03-25T05:20:07.373Z,99.90
2018-03-25T05:22:35.698Z,99.90
2018-03-25T05:25:04.801Z,99.90
2018-03-25T05:27:33.127Z,99.90
2018-03-25T05:30:02.239Z,99.90
2018-03-25T05:32:30.573Z,99.90
2018-03-25T05:34:58.891Z,99.90
2018-03-25T05:37:27.990Z,99.90
2018-03-25T05:39:57.084Z,99.90
2018-03-25T05:42:26.189Z,99.90
2018-03-25T05:44:55.304Z,99.90
2018-03-25T05:47:23.700Z,99.90
2018-03-25T05:49:52.037Z,99.90
2018-03-25T05:52:20.466Z,99.90
2018-03-25T05:54:48.859Z,99.90
2018-03-25T05:57:17.239Z,99.90
2018-03-25T05:59:45.558Z,99.90
2018-03-25T06:02:13.869Z,99.90
2018-03-25T06:04:42.967Z,99.90
2018-03-25T06:07:12.109Z,99.90
2018-03-25T06:09:40.431Z,99.90
2018-03-25T06:12:08.759Z,99.90
2018-03-25T06:14:37.101Z,99.90
2018-03-25T06:17:05.434Z,99.90
2018-03-25T06:19:33.775Z,99.90
2018-03-25T06:22:02.881Z,99.90
2018-03-25T06:24:31.976Z,99.90
2018-03-25T06:27:01.069Z,99.90
2018-03-25T06:29:29.459Z,99.90
2018-03-25T06:31:57.805Z,99.90
2018-03-25T06:34:26.138Z,99.90
2018-03-25T06:36:55.357Z,99.90
2018-03-25T06:39:23.664Z,99.90
2018-03-25T06:41:51.994Z,99.90
2018-03-25T06:44:21.116Z,99.90
2018-03-25T06:46:49.441Z,99.90
2018-03-25T06:49:17.775Z,99.90
2018-03-25T06:51:46.078Z,99.90
2018-03-25T06:54:14.514Z,99.90
2018-03-25T06:56:42.805Z,99.90
2018-03-25T06:59:12.023Z,99.90
2018-03-25T07:01:40.341Z,99.90
2018-03-25T07:04:08.667Z,99.90
2018-03-25T07:06:36.988Z,99.90
2018-03-25T07:09:05.314Z,99.90
2018-03-25T07:11:33.655Z,99.90
2018-03-25T07:14:01.966Z,99.90
2018-03-25T07:16:30.293Z,99.90
2018-03-25T07:18:59.409Z,99.90
2018-03-25T07:21:27.739Z,99.90
2018-03-25T07:23:56.094Z,99.90
2018-03-25T07:26:24.447Z,99.90
2018-03-25T07:28:52.795Z,99.90
2018-03-25T07:31:21.097Z,99.90
2018-03-25T07:33:50.171Z,99.90
2018-03-25T07:36:18.488Z,99.90
2018-03-25T07:38:47.594Z,99.90
2018-03-25T07:41:15.952Z,99.90
2018-03-25T07:43:44.534Z,99.90
2018-03-25T07:46:12.846Z,99.90
2018-03-25T07:48:41.929Z,99.90
2018-03-25T07:51:10.298Z,99.90
2018-03-25T07:53:38.666Z,99.90
2018-03-25T07:56:06.988Z,99.90
2018-03-25T07:58:36.096Z,99.90
2018-03-25T08:01:04.430Z,99.90
2018-03-25T08:03:32.745Z,99.90
2018-03-25T08:06:01.824Z,99.90
2018-03-25T08:08:30.147Z,99.90
2018-03-25T08:10:58.464Z,99.90
2018-03-25T08:13:27.058Z,99.90
2018-03-25T08:15:55.355Z,99.90
2018-03-25T08:18:23.674Z,99.90
2018-03-25T08:20:52.002Z,99.90
2018-03-25T08:23:20.366Z,99.90
2018-03-25T08:25:48.688Z,99.90
2018-03-25T08:28:17.008Z,99.90
2018-03-25T08:30:45.348Z,98.30
2018-03-25T08:33:13.686Z,96.20
2018-03-25T08:35:42.046Z,95.70
2018-03-25T08:38:11.125Z,94.50
2018-03-25T08:40:40.216Z,93.30
2018-03-25T08:43:08.528Z,93.00
2018-03-25T08:45:37.614Z,91.50
2018-03-25T08:48:05.950Z,91.50
2018-03-25T08:50:34.270Z,90.70
2018-03-25T08:53:02.591Z,89.30
2018-03-25T08:55:30.922Z,87.80
2018-03-25T08:57:59.237Z,86.90
2018-03-25T09:00:28.328Z,81.90
2018-03-25T09:02:57.404Z,79.20
2018-03-25T09:05:25.708Z,79.20
2018-03-25T09:07:54.794Z,75.60
2018-03-25T09:10:23.860Z,74.80
2018-03-25T09:12:52.178Z,75.80
2018-03-25T09:15:20.506Z,74.70
2018-03-25T09:17:48.812Z,73.10
2018-03-25T09:20:17.134Z,71.60
2018-03-25T09:22:45.466Z,70.30
2018-03-25T09:25:14.478Z,69.20
2018-03-25T09:27:42.816Z,68.40
2018-03-25T09:30:11.152Z,67.30
2018-03-25T09:32:39.510Z,67.10
2018-03-25T09:35:07.842Z,66.50
2018-03-25T09:37:36.230Z,65.30
2018-03-25T09:40:05.408Z,63.90
2018-03-25T09:42:33.738Z,63.90
2018-03-25T09:45:02.172Z,62.60
2018-03-25T09:47:30.506Z,61.20
2018-03-25T09:49:58.852Z,60.10
2018-03-25T09:52:27.170Z,59.50
2018-03-25T09:54:55.481Z,59.20
2018-03-25T09:57:23.796Z,58.50
2018-03-25T09:59:52.124Z,58.20
2018-03-25T10:02:25.927Z,57.30
2018-03-25T10:04:54.291Z,57.30
2018-03-25T10:07:24.366Z,57.10
2018-03-25T10:09:52.695Z,57.10
2018-03-25T10:12:21.818Z,56.70
2018-03-25T10:14:50.185Z,56.70
2018-03-25T10:17:18.668Z,56.60
2018-03-25T10:19:47.086Z,56.30
2018-03-25T10:22:15.479Z,56.00
2018-03-25T10:24:43.851Z,55.70
2018-03-25T10:27:13.026Z,55.10
2018-03-25T10:29:41.354Z,55.00
2018-03-25T10:32:09.744Z,55.20
2018-03-25T10:34:38.127Z,55.00
2018-03-25T10:37:06.577Z,55.30
2018-03-25T10:39:34.928Z,55.30
2018-03-25T10:42:04.032Z,55.00
2018-03-25T10:44:33.113Z,54.80
2018-03-25T10:47:01.449Z,54.80
2018-03-25T10:49:29.821Z,54.10
2018-03-25T10:51:58.127Z,53.80
2018-03-25T10:54:26.457Z,53.60
2018-03-25T10:56:55.575Z,52.30
2018-03-25T10:59:23.922Z,52.20
2018-03-25T11:01:53.051Z,51.30
2018-03-25T11:04:22.150Z,50.90
2018-03-25T11:06:50.478Z,50.70
2018-03-25T11:09:18.833Z,49.90
2018-03-25T11:11:47.181Z,48.90
2018-03-25T11:14:15.493Z,48.70
2018-03-25T11:16:43.900Z,47.90
2018-03-25T11:19:12.221Z,48.30
2018-03-25T11:21:40.535Z,46.80
2018-03-25T11:24:08.884Z,47.10
2018-03-25T11:26:37.219Z,47.50
2018-03-25T11:29:05.527Z,47.20
2018-03-25T11:31:33.851Z,47.10
2018-03-25T11:34:02.265Z,46.70
2018-03-25T11:36:30.595Z,45.90
2018-03-25T11:38:58.931Z,45.50
2018-03-25T11:41:27.237Z,45.40
2018-03-25T11:43:55.596Z,45.90
2018-03-25T11:46:23.939Z,45.50
2018-03-25T11:48:53.045Z,45.30
2018-03-25T11:51:22.865Z,45.40
2018-03-25T11:53:51.971Z,45.70
2018-03-25T11:56:20.311Z,45.60
2018-03-25T11:58:48.620Z,45.30
2018-03-25T12:01:16.940Z,45.60
2018-03-25T12:03:45.255Z,45.50
2018-03-25T12:06:13.602Z,45.10
2018-03-25T12:08:41.975Z,44.50
2018-03-25T12:11:10.392Z,44.30
2018-03-25T12:13:38.646Z,44.20
2018-03-25T12:16:07.007Z,43.60
2018-03-25T12:18:36.094Z,43.20
2018-03-25T12:21:05.206Z,42.70
2018-03-25T12:23:33.528Z,42.60
2018-03-25T12:26:01.873Z,42.80
2018-03-25T12:28:30.957Z,42.60
2018-03-25T12:30:59.275Z,42.50
2018-03-25T12:33:27.579Z,42.40
2018-03-25T12:35:55.885Z,41.80
2018-03-25T12:38:24.210Z,42.20
2018-03-25T12:40:53.201Z,41.80
2018-03-25T12:43:22.293Z,41.20
2018-03-25T12:45:51.395Z,41.00
2018-03-25T12:48:20.481Z,41.80
2018-03-25T12:50:48.807Z,41.70
2018-03-25T12:53:17.214Z,41.80
2018-03-25T12:55:45.527Z,41.60
2018-03-25T12:58:13.857Z,41.40
2018-03-25T13:00:42.169Z,41.90
2018-03-25T13:03:10.494Z,40.70
2018-03-25T13:05:39.558Z,40.10
2018-03-25T13:08:07.885Z,40.00
2018-03-25T13:10:37.083Z,39.80
2018-03-25T13:13:05.421Z,39.30
2018-03-25T13:15:34.509Z,38.60
2018-03-25T13:18:02.833Z,38.60
2018-03-25T13:20:31.928Z,39.40
2018-03-25T13:23:01.033Z,39.40
2018-03-25T13:25:30.141Z,39.20
2018-03-25T13:27:59.238Z,39.20
2018-03-25T13:30:28.339Z,39.00
2018-03-25T13:32:57.469Z,38.40
2018-03-25T13:35:25.852Z,38.30
2018-03-25T13:37:54.179Z,38.00
2018-03-25T13:40:22.489Z,37.80
2018-03-25T13:42:51.571Z,37.10
2018-03-25T13:45:20.680Z,36.80
2018-03-25T13:47:49.775Z,36.50
2018-03-25T13:50:18.859Z,36.10
2018-03-25T13:52:47.190Z,36.10
2018-03-25T13:55:15.519Z,35.90
2018-03-25T13:57:43.845Z,34.10
2018-03-25T14:00:12.240Z,33.50
2018-03-25T14:02:40.565Z,33.80
2018-03-25T14:05:08.883Z,33.50
2018-03-25T14:07:37.974Z,32.50
2018-03-25T14:10:07.049Z,32.00
2018-03-25T14:12:35.363Z,32.00
2018-03-25T14:15:04.463Z,31.30
2018-03-25T14:17:33.566Z,31.10
2018-03-25T14:20:02.705Z,31.20
2018-03-25T14:22:31.019Z,31.20
2018-03-25T14:24:59.385Z,31.00
2018-03-25T14:27:27.716Z,31.30
2018-03-25T14:29:56.799Z,31.10
2018-03-25T14:32:25.134Z,31.00
2018-03-25T14:34:53.441Z,31.40
2018-03-25T14:37:21.790Z,32.00
2018-03-25T14:39:50.116Z,32.70
2018-03-25T14:42:18.451Z,33.50
2018-03-25T14:44:46.784Z,33.70
2018-03-25T14:47:15.121Z,34.10
2018-03-25T14:49:43.435Z,34.80
2018-03-25T14:52:11.782Z,35.40
2018-03-25T14:54:40.176Z,36.10
2018-03-25T14:57:08.504Z,36.80
2018-03-25T14:59:37.595Z,37.50
2018-03-25T15:02:05.941Z,37.50
2018-03-25T15:04:35.157Z,38.00
2018-03-25T15:07:03.474Z,38.50
2018-03-25T15:09:32.562Z,39.50
2018-03-25T15:12:00.971Z,39.50
2018-03-25T15:14:30.067Z,40.50
2018-03-25T15:16:59.164Z,40.90
2018-03-25T15:19:28.278Z,41.90
2018-03-25T15:21:56.644Z,41.30
2018-03-25T15:24:25.740Z,42.30
2018-03-25T15:26:54.875Z,42.90
2018-03-25T15:29:23.236Z,42.80
2018-03-25T15:31:52.381Z,43.80
2018-03-25T15:34:21.561Z,44.40
2018-03-25T15:36:49.951Z,44.50
2018-03-25T15:39:18.270Z,45.10
2018-03-25T15:41:46.583Z,45.40
2018-03-25T15:44:15.696Z,45.80
2018-03-25T15:46:44.015Z,45.80
2018-03-25T15:49:12.322Z,46.10
2018-03-25T15:51:40.637Z,46.40
2018-03-25T15:54:08.974Z,47.00
2018-03-25T15:56:37.524Z,47.40
2018-03-25T15:59:06.058Z,47.90
2018-03-25T16:01:35.267Z,49.10
2018-03-25T16:04:04.352Z,49.40
2018-03-25T16:06:32.687Z,49.30
2018-03-25T16:09:01.019Z,49.70
2018-03-25T16:11:29.419Z,49.80
2018-03-25T16:13:58.728Z,50.60
2018-03-25T16:16:27.081Z,50.60
2018-03-25T16:18:55.434Z,51.00
2018-03-25T16:21:23.757Z,51.40
2018-03-25T16:23:52.067Z,51.70
2018-03-25T16:26:21.266Z,52.20
2018-03-25T16:28:49.836Z,52.10
2018-03-25T16:31:19.031Z,52.70
2018-03-25T16:33:47.808Z,52.70
2018-03-25T16:36:16.132Z,53.00
2018-03-25T16:38:45.236Z,53.90
2018-03-25T16:41:14.531Z,54.30
2018-03-25T16:43:42.870Z,54.30
2018-03-25T16:46:11.409Z,55.00
2018-03-25T16:48:39.970Z,55.50
2018-03-25T16:51:09.077Z,56.80
2018-03-25T16:53:37.603Z,56.80
2018-03-25T16:56:05.990Z,57.00
2018-03-25T16:58:34.513Z,57.60
2018-03-25T17:01:03.701Z,58.90
2018-03-25T17:03:32.039Z,58.40
2018-03-25T17:06:01.134Z,59.20
2018-03-25T17:08:30.374Z,59.50
2018-03-25T17:10:58.720Z,59.50
2018-03-25T17:13:27.875Z,60.50
2018-03-25T17:15:56.229Z,60.50
2018-03-25T17:18:24.559Z,61.00
2018-03-25T17:20:52.874Z,61.60
2018-03-25T17:23:22.025Z,62.00
2018-03-25T17:25:50.406Z,61.90
2018-03-25T17:28:18.734Z,62.10
2018-03-25T17:30:47.055Z,62.30
2018-03-25T17:33:15.451Z,62.60
2018-03-25T17:35:43.790Z,62.80
2018-03-25T17:38:12.120Z,63.10
2018-03-25T17:40:40.477Z,63.60
2018-03-25T17:43:08.787Z,64.50
2018-03-25T17:45:37.207Z,65.30
2018-03-25T17:48:05.538Z,66.20
2018-03-25T17:50:33.908Z,67.80
2018-03-25T17:53:02.275Z,69.20
2018-03-25T17:55:31.354Z,71.20
2018-03-25T17:57:59.668Z,72.30
2018-03-25T18:00:27.984Z,75.20
2018-03-25T18:02:56.300Z,76.10
2018-03-25T18:05:25.421Z,79.10
2018-03-25T18:07:54.213Z,79.10
2018-03-25T18:10:23.303Z,82.50
2018-03-25T18:12:52.401Z,84.60
2018-03-25T18:15:21.495Z,86.30
2018-03-25T18:17:50.588Z,89.10
2018-03-25T18:20:18.911Z,89.00
2018-03-25T18:22:47.207Z,89.90
2018-03-25T18:25:15.514Z,90.60
2018-03-25T18:27:43.959Z,91.30
2018-03-25T18:30:12.291Z,92.20
2018-03-25T18:32:40.848Z,93.10
2018-03-25T18:35:09.188Z,94.20
2018-03-25T18:37:38.247Z,95.80
2018-03-25T18:40:06.568Z,95.80
2018-03-25T18:42:35.728Z,97.60
2018-03-25T18:45:04.103Z,97.60
2018-03-25T18:47:32.530Z,98.70
2018-03-25T18:50:00.909Z,99.30
2018-03-25T18:52:29.341Z,99.90
2018-03-25T18:54:57.698Z,99.90
2018-03-25T18:57:26.063Z,99.90
2018-03-25T18:59:54.442Z,99.90
2018-03-25T19:02:22.760Z,99.90
2018-03-25T19:04:51.081Z,99.90
2018-03-25T19:07:19.517Z,99.90
2018-03-25T19:09:47.935Z,99.90
2018-03-25T19:12:16.273Z,99.90
2018-03-25T19:14:44.609Z,99.90
2018-03-25T19:17:13.203Z,99.90
2018-03-25T19:19:42.577Z,99.90
2018-03-25T19:22:10.957Z,99.90
2018-03-25T19:24:39.528Z,99.90
2018-03-25T19:27:08.201Z,99.90
2018-03-25T19:29:36.604Z,99.90
2018-03-25T19:32:05.210Z,99.90
2018-03-25T19:34:33.621Z,99.90
2018-03-25T19:37:01.941Z,99.90
2018-03-25T19:39:31.132Z,99.90
2018-03-25T19:41:59.687Z,99.90
2018-03-25T19:44:28.331Z,99.90
2018-03-25T19:46:56.752Z,99.90
2018-03-25T19:49:25.141Z,99.90
2018-03-25T19:51:53.526Z,99.90
2018-03-25T19:54:25.485Z,99.90
2018-03-25T19:56:55.236Z,99.90
2018-03-25T19:59:24.444Z,99.90
2018-03-25T20:01:54.680Z,99.90
2018-03-25T20:04:26.393Z,99.90
2018-03-25T20:06:54.709Z,99.90
2018-03-25T20:09:23.811Z,99.90
2018-03-25T20:11:52.933Z,99.90
2018-03-25T20:14:22.130Z,99.90
2018-03-25T20:16:50.466Z,99.90
2018-03-25T20:19:18.799Z,99.90
2018-03-25T20:21:48.213Z,99.90
2018-03-25T20:24:17.284Z,99.90
2018-03-25T20:26:45.613Z,99.90
2018-03-25T20:29:13.996Z,99.90
2018-03-25T20:31:42.382Z,99.90
2018-03-25T20:34:10.762Z,99.90
2018-03-25T20:36:39.099Z,99.90
2018-03-25T20:39:07.416Z,99.90
2018-03-25T20:41:35.746Z,99.90
2018-03-25T20:44:04.083Z,99.90
2018-03-25T20:46:32.408Z,99.90
2018-03-25T20:49:00.751Z,99.90
2018-03-25T20:51:29.099Z,99.90
2018-03-25T20:53:58.186Z,99.90
2018-03-25T20:56:26.502Z,99.90
2018-03-25T20:58:54.825Z,99.90
2018-03-25T21:01:23.157Z,99.90
2018-03-25T21:03:52.234Z,99.90
2018-03-25T21:06:20.544Z,99.90
2018-03-25T21:08:49.645Z,99.90
2018-03-25T21:11:18.794Z,99.90
2018-03-25T21:13:47.867Z,99.90
2018-03-25T21:16:16.188Z,99.90
2018-03-25T21:18:44.510Z,99.90
2018-03-25T21:21:12.823Z,99.90
2018-03-25T21:23:41.161Z,99.90
2018-03-25T21:26:10.250Z,99.90
2018-03-25T21:28:38.566Z,99.90
2018-03-25T21:31:06.879Z,99.90
2018-03-25T21:33:35.225Z,99.90
2018-03-25T21:36:03.544Z,99.90
2018-03-25T21:38:31.861Z,99.90
2018-03-25T21:41:00.944Z,99.90
2018-03-25T21:43:29.240Z,99.90
2018-03-25T21:45:57.570Z,99.90
2018-03-25T21:48:25.878Z,99.90
2018-03-25T21:50:54.190Z,99.90
2018-03-25T21:53:22.514Z,99.90
2018-03-25T21:55:50.890Z,99.90
2018-03-25T21:58:19.216Z,99.90
2018-03-25T22:00:47.554Z,99.90
2018-03-25T22:03:15.864Z,99.90
2018-03-25T22:05:44.202Z,99.90
2018-03-25T22:08:13.280Z,99.90
2018-03-25T22:10:41.582Z,99.90
2018-03-25T22:13:10.656Z,99.90
2018-03-25T22:15:39.002Z,99.90
2018-03-25T22:18:08.093Z,99.90
2018-03-25T22:20:36.408Z,99.90
2018-03-25T22:23:04.744Z,99.90
2018-03-25T22:25:33.074Z,99.90
2018-03-25T22:28:01.388Z,99.90
2018-03-25T22:30:30.467Z,99.90
2018-03-25T22:32:58.781Z,99.90
2018-03-25T22:35:27.102Z,99.90
2018-03-25T22:37:55.414Z,99.90
2018-03-25T22:40:23.736Z,99.90
2018-03-25T22:42:52.038Z,99.90
2018-03-25T22:45:20.363Z,99.90
2018-03-25T22:47:48.676Z,99.90
2018-03-25T22:50:16.983Z,99.90
2018-03-25T22:52:45.286Z,99.90
2018-03-25T22:55:13.652Z,99.90
2018-03-25T22:57:41.964Z,99.90
2018-03-25T23:00:10.360Z,99.90
2018-03-25T23:02:38.685Z,99.90
2018-03-25T23:05:07.016Z,99.90
2018-03-25T23:07:35.312Z,99.90
2018-03-25T23:10:04.402Z,99.90
2018-03-25T23:12:32.719Z,99.90
2018-03-25T23:15:01.020Z,99.90
2018-03-25T23:17:29.323Z,99.90
2018-03-25T23:19:57.767Z,99.90
2018-03-25T23:22:26.089Z,99.90
2018-03-25T23:24:54.411Z,99.90
2018-03-25T23:27:23.479Z,99.90
2018-03-25T23:29:51.792Z,99.90
2018-03-25T23:32:21.031Z,99.90
2018-03-25T23:34:49.345Z,99.90
2018-03-25T23:37:17.671Z,99.90
2018-03-25T23:39:46.745Z,99.90
2018-03-25T23:42:15.057Z,99.90
2018-03-25T23:44:43.373Z,99.90
2018-03-25T23:47:11.691Z,99.90
2018-03-25T23:49:40.005Z,99.90
2018-03-25T23:52:08.337Z,99.90
2018-03-25T23:54:36.642Z,99.90
2018-03-25T23:57:05.716Z,99.90
2018-03-25T23:59:34.033Z,99.90
